sensor_id;sensor_type;location;lat;lon;timestamp;P1;durP1;ratioP1;P2;durP2;ratioP2
17345;SDS011;8790;53.590;10.002;2023-10-09T00:01:08;3.43;;;2.00;;
17345;SDS011;8790;53.590;10.002;2023-10-09T00:03:45;3.57;;;2.00;;
17345;SDS011;8790;53.590;10.002;2023-10-09T00:06:23;2.83;;;1.83;;
17345;SDS011;8790;53.590;10.002;2023-10-09T00:09:06;3.07;;;2.20;;
17345;SDS011;8790;53.590;10.002;2023-10-09T00:12:00;3.03;;;2.10;;
17345;SDS011;8790;53.590;10.002;2023-10-09T00:14:40;3.10;;;2.10;;
17345;SDS011;8790;53.590;10.002;2023-10-09T00:17:11;5.43;;;2.43;;
17345;SDS011;8790;53.590;10.002;2023-10-09T00:19:49;3.87;;;2.17;;
17345;SDS011;8790;53.590;10.002;2023-10-09T00:22:22;2.93;;;2.40;;
17345;SDS011;8790;53.590;10.002;2023-10-09T00:25:00;4.40;;;2.30;;
17345;SDS011;8790;53.590;10.002;2023-10-09T00:27:41;4.03;;;2.10;;
17345;SDS011;8790;53.590;10.002;2023-10-09T00:30:16;3.47;;;2.00;;
17345;SDS011;8790;53.590;10.002;2023-10-09T00:32:49;2.97;;;2.10;;
17345;SDS011;8790;53.590;10.002;2023-10-09T00:35:30;4.20;;;1.80;;
17345;SDS011;8790;53.590;10.002;2023-10-09T00:38:07;3.87;;;1.90;;
17345;SDS011;8790;53.590;10.002;2023-10-09T00:40:46;4.60;;;2.20;;
17345;SDS011;8790;53.590;10.002;2023-10-09T00:43:23;3.60;;;1.90;;
17345;SDS011;8790;53.590;10.002;2023-10-09T00:45:59;5.00;;;2.00;;
17345;SDS011;8790;53.590;10.002;2023-10-09T00:48:39;4.07;;;2.00;;
17345;SDS011;8790;53.590;10.002;2023-10-09T00:51:12;2.43;;;1.80;;
17345;SDS011;8790;53.590;10.002;2023-10-09T00:53:48;3.43;;;1.90;;
17345;SDS011;8790;53.590;10.002;2023-10-09T00:56:22;3.53;;;2.00;;
17345;SDS011;8790;53.590;10.002;2023-10-09T00:59:08;3.03;;;1.80;;
17345;SDS011;8790;53.590;10.002;2023-10-09T01:01:44;4.37;;;2.00;;
17345;SDS011;8790;53.590;10.002;2023-10-09T01:04:26;3.60;;;1.90;;
17345;SDS011;8790;53.590;10.002;2023-10-09T01:07:00;4.57;;;1.77;;
17345;SDS011;8790;53.590;10.002;2023-10-09T01:09:45;3.13;;;1.80;;
17345;SDS011;8790;53.590;10.002;2023-10-09T01:12:20;5.93;;;1.70;;
17345;SDS011;8790;53.590;10.002;2023-10-09T01:14:51;5.17;;;1.83;;
17345;SDS011;8790;53.590;10.002;2023-10-09T01:17:25;3.50;;;1.73;;
17345;SDS011;8790;53.590;10.002;2023-10-09T01:20:06;3.67;;;2.20;;
17345;SDS011;8790;53.590;10.002;2023-10-09T01:22:48;6.03;;;1.93;;
17345;SDS011;8790;53.590;10.002;2023-10-09T01:25:25;3.67;;;1.40;;
17345;SDS011;8790;53.590;10.002;2023-10-09T01:28:09;1.73;;;1.50;;
17345;SDS011;8790;53.590;10.002;2023-10-09T01:30:40;3.47;;;2.03;;
17345;SDS011;8790;53.590;10.002;2023-10-09T01:33:12;2.40;;;1.73;;
17345;SDS011;8790;53.590;10.002;2023-10-09T01:35:52;3.53;;;1.77;;
17345;SDS011;8790;53.590;10.002;2023-10-09T01:38:29;2.87;;;1.80;;
17345;SDS011;8790;53.590;10.002;2023-10-09T01:41:15;3.23;;;1.70;;
17345;SDS011;8790;53.590;10.002;2023-10-09T01:43:50;2.93;;;1.73;;
17345;SDS011;8790;53.590;10.002;2023-10-09T01:46:25;1.83;;;1.40;;
17345;SDS011;8790;53.590;10.002;2023-10-09T01:48:57;3.00;;;1.80;;
17345;SDS011;8790;53.590;10.002;2023-10-09T01:51:30;3.63;;;1.90;;
17345;SDS011;8790;53.590;10.002;2023-10-09T01:54:04;3.53;;;1.77;;
17345;SDS011;8790;53.590;10.002;2023-10-09T01:56:38;3.77;;;1.80;;
17345;SDS011;8790;53.590;10.002;2023-10-09T01:59:16;2.13;;;1.67;;
17345;SDS011;8790;53.590;10.002;2023-10-09T02:01:49;2.17;;;1.63;;
17345;SDS011;8790;53.590;10.002;2023-10-09T02:04:24;3.60;;;1.70;;
17345;SDS011;8790;53.590;10.002;2023-10-09T02:06:57;2.07;;;1.67;;
17345;SDS011;8790;53.590;10.002;2023-10-09T02:09:29;3.27;;;1.90;;
17345;SDS011;8790;53.590;10.002;2023-10-09T02:12:03;4.13;;;1.60;;
17345;SDS011;8790;53.590;10.002;2023-10-09T02:14:36;3.20;;;1.57;;
17345;SDS011;8790;53.590;10.002;2023-10-09T02:17:11;2.63;;;1.50;;
17345;SDS011;8790;53.590;10.002;2023-10-09T02:19:48;4.03;;;1.70;;
17345;SDS011;8790;53.590;10.002;2023-10-09T02:22:22;2.30;;;1.77;;
17345;SDS011;8790;53.590;10.002;2023-10-09T02:24:56;5.60;;;2.27;;
17345;SDS011;8790;53.590;10.002;2023-10-09T02:27:36;3.40;;;1.73;;
17345;SDS011;8790;53.590;10.002;2023-10-09T02:30:23;3.20;;;2.27;;
17345;SDS011;8790;53.590;10.002;2023-10-09T02:32:58;2.63;;;1.77;;
17345;SDS011;8790;53.590;10.002;2023-10-09T02:35:36;3.20;;;1.80;;
17345;SDS011;8790;53.590;10.002;2023-10-09T02:38:08;4.30;;;1.80;;
17345;SDS011;8790;53.590;10.002;2023-10-09T02:40:44;4.57;;;2.03;;
17345;SDS011;8790;53.590;10.002;2023-10-09T02:43:33;3.50;;;1.70;;
17345;SDS011;8790;53.590;10.002;2023-10-09T02:46:14;3.23;;;1.60;;
17345;SDS011;8790;53.590;10.002;2023-10-09T02:48:48;3.63;;;2.03;;
17345;SDS011;8790;53.590;10.002;2023-10-09T02:51:22;3.63;;;1.70;;
17345;SDS011;8790;53.590;10.002;2023-10-09T02:54:03;4.63;;;1.63;;
17345;SDS011;8790;53.590;10.002;2023-10-09T02:56:56;3.70;;;1.70;;
17345;SDS011;8790;53.590;10.002;2023-10-09T02:59:38;2.73;;;1.57;;
17345;SDS011;8790;53.590;10.002;2023-10-09T03:02:11;3.07;;;1.80;;
17345;SDS011;8790;53.590;10.002;2023-10-09T03:04:43;3.47;;;1.80;;
17345;SDS011;8790;53.590;10.002;2023-10-09T03:07:14;4.47;;;1.80;;
17345;SDS011;8790;53.590;10.002;2023-10-09T03:09:46;2.80;;;1.90;;
17345;SDS011;8790;53.590;10.002;2023-10-09T03:12:18;2.27;;;1.77;;
17345;SDS011;8790;53.590;10.002;2023-10-09T03:14:58;2.70;;;1.70;;
17345;SDS011;8790;53.590;10.002;2023-10-09T03:17:32;2.50;;;1.60;;
17345;SDS011;8790;53.590;10.002;2023-10-09T03:20:05;2.50;;;1.90;;
17345;SDS011;8790;53.590;10.002;2023-10-09T03:22:42;5.50;;;1.90;;
17345;SDS011;8790;53.590;10.002;2023-10-09T03:25:15;3.27;;;1.77;;
17345;SDS011;8790;53.590;10.002;2023-10-09T03:27:48;4.47;;;1.90;;
17345;SDS011;8790;53.590;10.002;2023-10-09T03:30:20;2.90;;;1.70;;
17345;SDS011;8790;53.590;10.002;2023-10-09T03:32:53;4.67;;;2.03;;
17345;SDS011;8790;53.590;10.002;2023-10-09T03:35:25;4.90;;;1.73;;
17345;SDS011;8790;53.590;10.002;2023-10-09T03:37:58;2.40;;;1.70;;
17345;SDS011;8790;53.590;10.002;2023-10-09T03:40:30;3.13;;;1.63;;
17345;SDS011;8790;53.590;10.002;2023-10-09T03:43:02;2.47;;;1.90;;
17345;SDS011;8790;53.590;10.002;2023-10-09T03:45:36;2.83;;;1.73;;
17345;SDS011;8790;53.590;10.002;2023-10-09T03:48:09;2.40;;;1.50;;
17345;SDS011;8790;53.590;10.002;2023-10-09T03:50:46;2.17;;;1.67;;
17345;SDS011;8790;53.590;10.002;2023-10-09T03:53:17;3.33;;;1.70;;
17345;SDS011;8790;53.590;10.002;2023-10-09T03:55:49;2.70;;;1.67;;
17345;SDS011;8790;53.590;10.002;2023-10-09T03:58:21;2.70;;;1.70;;
17345;SDS011;8790;53.590;10.002;2023-10-09T04:00:54;2.37;;;1.40;;
17345;SDS011;8790;53.590;10.002;2023-10-09T04:03:26;4.40;;;1.70;;
17345;SDS011;8790;53.590;10.002;2023-10-09T04:05:57;2.17;;;1.50;;
17345;SDS011;8790;53.590;10.002;2023-10-09T04:08:30;3.13;;;1.50;;
17345;SDS011;8790;53.590;10.002;2023-10-09T04:11:03;2.77;;;1.60;;
17345;SDS011;8790;53.590;10.002;2023-10-09T04:13:46;3.67;;;1.60;;
17345;SDS011;8790;53.590;10.002;2023-10-09T04:16:19;3.80;;;1.70;;
17345;SDS011;8790;53.590;10.002;2023-10-09T04:19:05;2.43;;;1.50;;
17345;SDS011;8790;53.590;10.002;2023-10-09T04:21:41;2.50;;;1.47;;
17345;SDS011;8790;53.590;10.002;2023-10-09T04:24:12;2.40;;;1.63;;
17345;SDS011;8790;53.590;10.002;2023-10-09T04:26:55;3.07;;;1.57;;
17345;SDS011;8790;53.590;10.002;2023-10-09T04:29:26;2.53;;;1.57;;
17345;SDS011;8790;53.590;10.002;2023-10-09T04:31:59;2.07;;;1.60;;
17345;SDS011;8790;53.590;10.002;2023-10-09T04:34:30;3.23;;;1.50;;
17345;SDS011;8790;53.590;10.002;2023-10-09T04:37:06;3.00;;;1.80;;
17345;SDS011;8790;53.590;10.002;2023-10-09T04:39:54;3.47;;;1.70;;
17345;SDS011;8790;53.590;10.002;2023-10-09T04:42:42;2.63;;;1.43;;
17345;SDS011;8790;53.590;10.002;2023-10-09T04:45:28;2.17;;;1.50;;
17345;SDS011;8790;53.590;10.002;2023-10-09T04:48:18;3.60;;;1.60;;
17345;SDS011;8790;53.590;10.002;2023-10-09T04:51:02;3.63;;;1.63;;
17345;SDS011;8790;53.590;10.002;2023-10-09T04:54:04;3.37;;;1.63;;
17345;SDS011;8790;53.590;10.002;2023-10-09T04:56:44;3.23;;;2.20;;
17345;SDS011;8790;53.590;10.002;2023-10-09T04:59:25;3.80;;;1.50;;
17345;SDS011;8790;53.590;10.002;2023-10-09T05:01:56;3.90;;;1.70;;
17345;SDS011;8790;53.590;10.002;2023-10-09T05:04:36;2.77;;;1.67;;
17345;SDS011;8790;53.590;10.002;2023-10-09T05:07:12;3.70;;;2.50;;
17345;SDS011;8790;53.590;10.002;2023-10-09T05:10:03;3.23;;;1.80;;
17345;SDS011;8790;53.590;10.002;2023-10-09T05:12:44;4.23;;;1.80;;
17345;SDS011;8790;53.590;10.002;2023-10-09T05:15:26;2.43;;;1.70;;
17345;SDS011;8790;53.590;10.002;2023-10-09T05:18:00;3.00;;;1.50;;
17345;SDS011;8790;53.590;10.002;2023-10-09T05:20:40;3.23;;;1.97;;
17345;SDS011;8790;53.590;10.002;2023-10-09T05:23:25;3.13;;;1.70;;
17345;SDS011;8790;53.590;10.002;2023-10-09T05:25:57;3.50;;;1.90;;
17345;SDS011;8790;53.590;10.002;2023-10-09T05:28:28;3.67;;;1.70;;
17345;SDS011;8790;53.590;10.002;2023-10-09T05:31:18;3.00;;;1.63;;
17345;SDS011;8790;53.590;10.002;2023-10-09T05:34:15;3.07;;;2.07;;
17345;SDS011;8790;53.590;10.002;2023-10-09T05:36:51;3.20;;;1.67;;
17345;SDS011;8790;53.590;10.002;2023-10-09T05:39:21;3.20;;;1.50;;
17345;SDS011;8790;53.590;10.002;2023-10-09T05:42:11;3.50;;;1.57;;
17345;SDS011;8790;53.590;10.002;2023-10-09T05:44:48;2.90;;;1.70;;
17345;SDS011;8790;53.590;10.002;2023-10-09T05:47:42;3.07;;;1.87;;
17345;SDS011;8790;53.590;10.002;2023-10-09T05:50:24;3.37;;;1.70;;
17345;SDS011;8790;53.590;10.002;2023-10-09T05:53:05;4.20;;;1.90;;
17345;SDS011;8790;53.590;10.002;2023-10-09T05:55:47;2.97;;;1.90;;
17345;SDS011;8790;53.590;10.002;2023-10-09T05:58:36;3.27;;;1.97;;
17345;SDS011;8790;53.590;10.002;2023-10-09T06:01:33;3.63;;;1.97;;
17345;SDS011;8790;53.590;10.002;2023-10-09T06:04:22;2.50;;;2.10;;
17345;SDS011;8790;53.590;10.002;2023-10-09T06:07:14;4.17;;;2.27;;
17345;SDS011;8790;53.590;10.002;2023-10-09T06:09:54;4.33;;;2.10;;
17345;SDS011;8790;53.590;10.002;2023-10-09T06:12:26;3.97;;;2.20;;
17345;SDS011;8790;53.590;10.002;2023-10-09T06:15:20;5.10;;;2.40;;
17345;SDS011;8790;53.590;10.002;2023-10-09T06:18:16;3.23;;;1.83;;
17345;SDS011;8790;53.590;10.002;2023-10-09T06:21:02;3.50;;;2.10;;
17345;SDS011;8790;53.590;10.002;2023-10-09T06:23:39;5.53;;;2.30;;
17345;SDS011;8790;53.590;10.002;2023-10-09T06:26:46;3.90;;;2.00;;
17345;SDS011;8790;53.590;10.002;2023-10-09T06:29:41;3.90;;;2.10;;
17345;SDS011;8790;53.590;10.002;2023-10-09T06:32:42;4.07;;;2.20;;
17345;SDS011;8790;53.590;10.002;2023-10-09T06:35:27;3.93;;;2.43;;
17345;SDS011;8790;53.590;10.002;2023-10-09T06:38:02;4.03;;;2.40;;
17345;SDS011;8790;53.590;10.002;2023-10-09T06:40:51;3.70;;;2.30;;
17345;SDS011;8790;53.590;10.002;2023-10-09T06:43:40;3.07;;;2.10;;
17345;SDS011;8790;53.590;10.002;2023-10-09T06:46:17;3.07;;;2.00;;
17345;SDS011;8790;53.590;10.002;2023-10-09T06:49:03;2.90;;;2.07;;
17345;SDS011;8790;53.590;10.002;2023-10-09T06:51:59;3.47;;;1.90;;
17345;SDS011;8790;53.590;10.002;2023-10-09T06:54:45;4.00;;;2.10;;
17345;SDS011;8790;53.590;10.002;2023-10-09T06:57:20;3.63;;;2.37;;
17345;SDS011;8790;53.590;10.002;2023-10-09T07:00:13;5.17;;;2.30;;
17345;SDS011;8790;53.590;10.002;2023-10-09T07:03:02;4.40;;;2.63;;
17345;SDS011;8790;53.590;10.002;2023-10-09T07:05:41;5.87;;;2.80;;
17345;SDS011;8790;53.590;10.002;2023-10-09T07:08:30;3.43;;;2.80;;
17345;SDS011;8790;53.590;10.002;2023-10-09T07:11:06;3.77;;;2.53;;
17345;SDS011;8790;53.590;10.002;2023-10-09T07:14:12;4.50;;;3.00;;
17345;SDS011;8790;53.590;10.002;2023-10-09T07:17:04;5.20;;;2.97;;
17345;SDS011;8790;53.590;10.002;2023-10-09T07:19:45;5.90;;;2.93;;
17345;SDS011;8790;53.590;10.002;2023-10-09T07:22:38;4.60;;;3.10;;
17345;SDS011;8790;53.590;10.002;2023-10-09T07:25:22;6.30;;;3.40;;
17345;SDS011;8790;53.590;10.002;2023-10-09T07:28:12;4.87;;;3.10;;
17345;SDS011;8790;53.590;10.002;2023-10-09T07:30:59;5.80;;;3.57;;
17345;SDS011;8790;53.590;10.002;2023-10-09T07:33:32;5.70;;;3.70;;
17345;SDS011;8790;53.590;10.002;2023-10-09T07:36:22;5.47;;;3.23;;
17345;SDS011;8790;53.590;10.002;2023-10-09T07:39:04;4.30;;;3.07;;
17345;SDS011;8790;53.590;10.002;2023-10-09T07:41:44;4.77;;;3.30;;
17345;SDS011;8790;53.590;10.002;2023-10-09T07:44:25;3.87;;;2.53;;
17345;SDS011;8790;53.590;10.002;2023-10-09T07:47:07;5.70;;;3.33;;
17345;SDS011;8790;53.590;10.002;2023-10-09T07:49:49;5.33;;;3.47;;
17345;SDS011;8790;53.590;10.002;2023-10-09T07:52:24;3.23;;;2.70;;
17345;SDS011;8790;53.590;10.002;2023-10-09T07:54:56;4.23;;;2.83;;
17345;SDS011;8790;53.590;10.002;2023-10-09T07:57:33;4.27;;;3.33;;
17345;SDS011;8790;53.590;10.002;2023-10-09T08:00:12;4.23;;;3.50;;
17345;SDS011;8790;53.590;10.002;2023-10-09T08:02:58;5.00;;;3.67;;
17345;SDS011;8790;53.590;10.002;2023-10-09T08:05:31;4.77;;;4.00;;
17345;SDS011;8790;53.590;10.002;2023-10-09T08:08:04;6.43;;;4.07;;
17345;SDS011;8790;53.590;10.002;2023-10-09T08:11:09;4.77;;;4.03;;
17345;SDS011;8790;53.590;10.002;2023-10-09T08:13:58;5.23;;;3.80;;
17345;SDS011;8790;53.590;10.002;2023-10-09T08:16:30;5.33;;;3.83;;
17345;SDS011;8790;53.590;10.002;2023-10-09T08:19:06;5.17;;;4.10;;
17345;SDS011;8790;53.590;10.002;2023-10-09T08:22:03;4.87;;;3.87;;
17345;SDS011;8790;53.590;10.002;2023-10-09T08:25:04;4.90;;;4.10;;
17345;SDS011;8790;53.590;10.002;2023-10-09T08:27:38;4.80;;;3.63;;
17345;SDS011;8790;53.590;10.002;2023-10-09T08:30:16;4.20;;;3.63;;
17345;SDS011;8790;53.590;10.002;2023-10-09T08:32:59;3.87;;;3.47;;
17345;SDS011;8790;53.590;10.002;2023-10-09T08:35:34;4.33;;;3.40;;
17345;SDS011;8790;53.590;10.002;2023-10-09T08:38:14;4.70;;;3.60;;
17345;SDS011;8790;53.590;10.002;2023-10-09T08:40:53;3.80;;;3.30;;
17345;SDS011;8790;53.590;10.002;2023-10-09T08:43:28;4.97;;;3.40;;
17345;SDS011;8790;53.590;10.002;2023-10-09T08:46:03;3.60;;;3.00;;
17345;SDS011;8790;53.590;10.002;2023-10-09T08:48:36;5.10;;;3.10;;
17345;SDS011;8790;53.590;10.002;2023-10-09T08:51:09;4.93;;;3.07;;
17345;SDS011;8790;53.590;10.002;2023-10-09T08:53:42;4.33;;;3.23;;
17345;SDS011;8790;53.590;10.002;2023-10-09T08:56:16;4.17;;;3.10;;
17345;SDS011;8790;53.590;10.002;2023-10-09T08:58:52;4.53;;;3.13;;
17345;SDS011;8790;53.590;10.002;2023-10-09T09:01:25;4.73;;;3.60;;
17345;SDS011;8790;53.590;10.002;2023-10-09T09:04:01;3.33;;;3.03;;
17345;SDS011;8790;53.590;10.002;2023-10-09T09:06:36;3.70;;;2.80;;
17345;SDS011;8790;53.590;10.002;2023-10-09T09:09:13;6.07;;;3.13;;
17345;SDS011;8790;53.590;10.002;2023-10-09T09:11:45;4.87;;;3.57;;
17345;SDS011;8790;53.590;10.002;2023-10-09T09:14:19;3.77;;;3.33;;
17345;SDS011;8790;53.590;10.002;2023-10-09T09:16:52;4.40;;;3.43;;
17345;SDS011;8790;53.590;10.002;2023-10-09T09:19:30;5.70;;;3.73;;
17345;SDS011;8790;53.590;10.002;2023-10-09T09:22:03;4.30;;;3.90;;
17345;SDS011;8790;53.590;10.002;2023-10-09T09:24:43;5.27;;;4.07;;
17345;SDS011;8790;53.590;10.002;2023-10-09T09:27:46;4.33;;;3.43;;
17345;SDS011;8790;53.590;10.002;2023-10-09T09:30:23;6.00;;;3.87;;
17345;SDS011;8790;53.590;10.002;2023-10-09T09:32:55;4.83;;;3.73;;
17345;SDS011;8790;53.590;10.002;2023-10-09T09:35:40;5.03;;;4.10;;
17345;SDS011;8790;53.590;10.002;2023-10-09T09:38:27;5.43;;;4.13;;
17345;SDS011;8790;53.590;10.002;2023-10-09T09:41:00;5.03;;;4.20;;
17345;SDS011;8790;53.590;10.002;2023-10-09T09:43:34;5.47;;;4.03;;
17345;SDS011;8790;53.590;10.002;2023-10-09T09:46:10;4.07;;;3.57;;
17345;SDS011;8790;53.590;10.002;2023-10-09T09:48:42;5.27;;;3.87;;
17345;SDS011;8790;53.590;10.002;2023-10-09T09:51:17;5.40;;;4.03;;
17345;SDS011;8790;53.590;10.002;2023-10-09T09:53:50;5.13;;;4.23;;
17345;SDS011;8790;53.590;10.002;2023-10-09T09:56:25;4.57;;;4.07;;
17345;SDS011;8790;53.590;10.002;2023-10-09T09:58:57;4.73;;;4.20;;
17345;SDS011;8790;53.590;10.002;2023-10-09T10:01:30;5.30;;;4.20;;
17345;SDS011;8790;53.590;10.002;2023-10-09T10:04:05;5.33;;;4.47;;
17345;SDS011;8790;53.590;10.002;2023-10-09T10:06:43;5.87;;;4.67;;
17345;SDS011;8790;53.590;10.002;2023-10-09T10:12:10;6.43;;;4.53;;
17345;SDS011;8790;53.590;10.002;2023-10-09T10:14:54;4.80;;;4.13;;
17345;SDS011;8790;53.590;10.002;2023-10-09T10:17:29;4.97;;;4.10;;
17345;SDS011;8790;53.590;10.002;2023-10-09T10:20:01;4.60;;;4.20;;
17345;SDS011;8790;53.590;10.002;2023-10-09T10:25:47;6.07;;;3.90;;
17345;SDS011;8790;53.590;10.002;2023-10-09T10:28:31;4.33;;;3.93;;
17345;SDS011;8790;53.590;10.002;2023-10-09T10:31:12;4.50;;;3.60;;
17345;SDS011;8790;53.590;10.002;2023-10-09T10:34:03;4.40;;;4.00;;
17345;SDS011;8790;53.590;10.002;2023-10-09T10:36:37;4.50;;;3.63;;
17345;SDS011;8790;53.590;10.002;2023-10-09T10:39:12;3.80;;;3.50;;
17345;SDS011;8790;53.590;10.002;2023-10-09T10:41:54;4.77;;;3.80;;
17345;SDS011;8790;53.590;10.002;2023-10-09T10:44:29;4.10;;;3.70;;
17345;SDS011;8790;53.590;10.002;2023-10-09T10:47:09;4.47;;;3.80;;
17345;SDS011;8790;53.590;10.002;2023-10-09T10:49:53;3.90;;;3.57;;
17345;SDS011;8790;53.590;10.002;2023-10-09T10:52:29;4.40;;;3.50;;
17345;SDS011;8790;53.590;10.002;2023-10-09T10:55:12;4.00;;;3.60;;
17345;SDS011;8790;53.590;10.002;2023-10-09T10:58:17;3.67;;;2.93;;
17345;SDS011;8790;53.590;10.002;2023-10-09T11:00:55;3.70;;;3.30;;
17345;SDS011;8790;53.590;10.002;2023-10-09T11:03:45;3.90;;;3.50;;
17345;SDS011;8790;53.590;10.002;2023-10-09T11:06:26;4.67;;;3.40;;
17345;SDS011;8790;53.590;10.002;2023-10-09T11:09:08;3.50;;;3.20;;
17345;SDS011;8790;53.590;10.002;2023-10-09T11:11:51;4.07;;;3.30;;
17345;SDS011;8790;53.590;10.002;2023-10-09T11:14:25;5.10;;;4.00;;
17345;SDS011;8790;53.590;10.002;2023-10-09T11:16:58;3.83;;;3.40;;
17345;SDS011;8790;53.590;10.002;2023-10-09T11:19:33;4.60;;;3.50;;
17345;SDS011;8790;53.590;10.002;2023-10-09T11:22:10;4.07;;;3.60;;
17345;SDS011;8790;53.590;10.002;2023-10-09T11:24:59;3.83;;;3.30;;
17345;SDS011;8790;53.590;10.002;2023-10-09T11:27:41;3.60;;;3.30;;
17345;SDS011;8790;53.590;10.002;2023-10-09T11:30:20;4.30;;;3.80;;
17345;SDS011;8790;53.590;10.002;2023-10-09T11:33:05;4.17;;;3.53;;
17345;SDS011;8790;53.590;10.002;2023-10-09T11:35:53;4.27;;;3.87;;
17345;SDS011;8790;53.590;10.002;2023-10-09T11:38:27;4.87;;;4.37;;
17345;SDS011;8790;53.590;10.002;2023-10-09T11:41:12;4.00;;;3.60;;
17345;SDS011;8790;53.590;10.002;2023-10-09T11:43:54;4.00;;;3.60;;
17345;SDS011;8790;53.590;10.002;2023-10-09T11:46:28;4.90;;;4.40;;
17345;SDS011;8790;53.590;10.002;2023-10-09T11:49:19;3.50;;;3.20;;
17345;SDS011;8790;53.590;10.002;2023-10-09T11:52:04;3.57;;;3.27;;
17345;SDS011;8790;53.590;10.002;2023-10-09T11:54:54;3.23;;;2.93;;
17345;SDS011;8790;53.590;10.002;2023-10-09T11:57:26;3.83;;;3.10;;
17345;SDS011;8790;53.590;10.002;2023-10-09T12:00:04;3.80;;;3.23;;
17345;SDS011;8790;53.590;10.002;2023-10-09T12:02:54;3.50;;;3.17;;
17345;SDS011;8790;53.590;10.002;2023-10-09T12:05:27;3.90;;;2.87;;
17345;SDS011;8790;53.590;10.002;2023-10-09T12:07:58;3.70;;;3.40;;
17345;SDS011;8790;53.590;10.002;2023-10-09T12:10:31;4.07;;;3.27;;
17345;SDS011;8790;53.590;10.002;2023-10-09T12:13:04;3.83;;;3.43;;
17345;SDS011;8790;53.590;10.002;2023-10-09T12:15:37;3.80;;;3.37;;
17345;SDS011;8790;53.590;10.002;2023-10-09T12:18:09;3.97;;;3.57;;
17345;SDS011;8790;53.590;10.002;2023-10-09T12:20:46;6.30;;;4.20;;
17345;SDS011;8790;53.590;10.002;2023-10-09T12:23:21;4.43;;;3.97;;
17345;SDS011;8790;53.590;10.002;2023-10-09T12:25:57;4.80;;;4.03;;
17345;SDS011;8790;53.590;10.002;2023-10-09T12:28:30;4.23;;;3.77;;
17345;SDS011;8790;53.590;10.002;2023-10-09T12:31:03;5.10;;;3.93;;
17345;SDS011;8790;53.590;10.002;2023-10-09T12:33:34;4.10;;;3.70;;
17345;SDS011;8790;53.590;10.002;2023-10-09T12:36:12;4.00;;;3.60;;
17345;SDS011;8790;53.590;10.002;2023-10-09T12:38:49;3.73;;;3.30;;
17345;SDS011;8790;53.590;10.002;2023-10-09T12:41:24;4.77;;;3.37;;
17345;SDS011;8790;53.590;10.002;2023-10-09T12:43:56;4.10;;;3.70;;
17345;SDS011;8790;53.590;10.002;2023-10-09T12:46:29;5.03;;;3.73;;
17345;SDS011;8790;53.590;10.002;2023-10-09T12:49:07;3.90;;;3.50;;
17345;SDS011;8790;53.590;10.002;2023-10-09T12:51:40;3.80;;;3.40;;
17345;SDS011;8790;53.590;10.002;2023-10-09T12:54:11;4.40;;;3.50;;
17345;SDS011;8790;53.590;10.002;2023-10-09T12:56:44;4.50;;;3.10;;
17345;SDS011;8790;53.590;10.002;2023-10-09T12:59:18;3.57;;;3.27;;
17345;SDS011;8790;53.590;10.002;2023-10-09T13:01:51;4.27;;;3.67;;
17345;SDS011;8790;53.590;10.002;2023-10-09T13:04:27;6.00;;;3.40;;
17345;SDS011;8790;53.590;10.002;2023-10-09T13:07:03;3.73;;;3.33;;
17345;SDS011;8790;53.590;10.002;2023-10-09T13:09:36;6.10;;;3.77;;
17345;SDS011;8790;53.590;10.002;2023-10-09T13:12:12;3.60;;;3.07;;
17345;SDS011;8790;53.590;10.002;2023-10-09T13:14:48;4.67;;;3.47;;
17345;SDS011;8790;53.590;10.002;2023-10-09T13:17:20;3.87;;;3.27;;
17345;SDS011;8790;53.590;10.002;2023-10-09T13:19:52;3.50;;;3.20;;
17345;SDS011;8790;53.590;10.002;2023-10-09T13:22:26;3.90;;;3.27;;
17345;SDS011;8790;53.590;10.002;2023-10-09T13:24:57;6.57;;;5.10;;
17345;SDS011;8790;53.590;10.002;2023-10-09T13:27:34;5.13;;;4.00;;
17345;SDS011;8790;53.590;10.002;2023-10-09T13:30:06;4.87;;;4.20;;
17345;SDS011;8790;53.590;10.002;2023-10-09T13:32:40;4.40;;;4.00;;
17345;SDS011;8790;53.590;10.002;2023-10-09T13:35:13;4.20;;;3.80;;
17345;SDS011;8790;53.590;10.002;2023-10-09T13:37:47;4.40;;;3.87;;
17345;SDS011;8790;53.590;10.002;2023-10-09T13:40:24;4.27;;;3.87;;
17345;SDS011;8790;53.590;10.002;2023-10-09T13:42:57;4.80;;;4.40;;
17345;SDS011;8790;53.590;10.002;2023-10-09T13:45:29;4.67;;;4.27;;
17345;SDS011;8790;53.590;10.002;2023-10-09T13:48:03;5.50;;;5.00;;
17345;SDS011;8790;53.590;10.002;2023-10-09T13:50:35;5.67;;;4.93;;
17345;SDS011;8790;53.590;10.002;2023-10-09T13:53:14;7.33;;;4.83;;
17345;SDS011;8790;53.590;10.002;2023-10-09T13:55:45;5.97;;;5.27;;
17345;SDS011;8790;53.590;10.002;2023-10-09T13:58:17;6.83;;;5.33;;
17345;SDS011;8790;53.590;10.002;2023-10-09T14:00:50;6.17;;;5.47;;
17345;SDS011;8790;53.590;10.002;2023-10-09T14:03:23;5.43;;;4.87;;
17345;SDS011;8790;53.590;10.002;2023-10-09T14:05:57;6.80;;;5.67;;
17345;SDS011;8790;53.590;10.002;2023-10-09T14:08:41;8.20;;;5.97;;
17345;SDS011;8790;53.590;10.002;2023-10-09T14:11:14;8.57;;;6.13;;
17345;SDS011;8790;53.590;10.002;2023-10-09T14:13:46;7.13;;;5.97;;
17345;SDS011;8790;53.590;10.002;2023-10-09T14:16:18;7.97;;;6.70;;
17345;SDS011;8790;53.590;10.002;2023-10-09T14:18:57;8.10;;;6.80;;
17345;SDS011;8790;53.590;10.002;2023-10-09T14:21:29;12.20;;;7.80;;
17345;SDS011;8790;53.590;10.002;2023-10-09T14:24:04;9.40;;;7.63;;
17345;SDS011;8790;53.590;10.002;2023-10-09T14:26:45;11.20;;;7.90;;
17345;SDS011;8790;53.590;10.002;2023-10-09T14:29:17;9.63;;;7.97;;
17345;SDS011;8790;53.590;10.002;2023-10-09T14:31:49;9.73;;;8.33;;
17345;SDS011;8790;53.590;10.002;2023-10-09T14:34:30;12.57;;;8.20;;
17345;SDS011;8790;53.590;10.002;2023-10-09T14:37:05;10.30;;;7.53;;
17345;SDS011;8790;53.590;10.002;2023-10-09T14:39:43;10.07;;;8.00;;
17345;SDS011;8790;53.590;10.002;2023-10-09T14:42:18;10.37;;;7.90;;
17345;SDS011;8790;53.590;10.002;2023-10-09T14:44:50;12.33;;;8.47;;
17345;SDS011;8790;53.590;10.002;2023-10-09T14:47:22;14.13;;;9.30;;
17345;SDS011;8790;53.590;10.002;2023-10-09T14:49:53;11.57;;;8.77;;
17345;SDS011;8790;53.590;10.002;2023-10-09T14:52:31;12.67;;;9.03;;
17345;SDS011;8790;53.590;10.002;2023-10-09T14:55:04;11.03;;;8.77;;
17345;SDS011;8790;53.590;10.002;2023-10-09T14:57:36;10.93;;;8.20;;
17345;SDS011;8790;53.590;10.002;2023-10-09T15:00:08;10.43;;;8.50;;
17345;SDS011;8790;53.590;10.002;2023-10-09T15:02:45;10.77;;;7.90;;
17345;SDS011;8790;53.590;10.002;2023-10-09T15:05:17;11.00;;;8.37;;
17345;SDS011;8790;53.590;10.002;2023-10-09T15:07:48;13.77;;;9.17;;
17345;SDS011;8790;53.590;10.002;2023-10-09T15:10:21;12.10;;;8.70;;
17345;SDS011;8790;53.590;10.002;2023-10-09T15:12:54;12.87;;;8.73;;
17345;SDS011;8790;53.590;10.002;2023-10-09T15:15:26;10.17;;;8.17;;
17345;SDS011;8790;53.590;10.002;2023-10-09T15:18:01;9.57;;;7.83;;
17345;SDS011;8790;53.590;10.002;2023-10-09T15:20:34;9.83;;;8.07;;
17345;SDS011;8790;53.590;10.002;2023-10-09T15:23:05;11.37;;;8.67;;
17345;SDS011;8790;53.590;10.002;2023-10-09T15:25:39;12.07;;;8.60;;
17345;SDS011;8790;53.590;10.002;2023-10-09T15:28:12;11.10;;;8.87;;
17345;SDS011;8790;53.590;10.002;2023-10-09T15:30:45;11.83;;;8.77;;
17345;SDS011;8790;53.590;10.002;2023-10-09T15:33:17;12.13;;;8.80;;
17345;SDS011;8790;53.590;10.002;2023-10-09T15:35:50;12.43;;;9.60;;
17345;SDS011;8790;53.590;10.002;2023-10-09T15:38:22;13.43;;;10.03;;
17345;SDS011;8790;53.590;10.002;2023-10-09T15:40:56;13.83;;;9.93;;
17345;SDS011;8790;53.590;10.002;2023-10-09T15:43:30;14.63;;;10.57;;
17345;SDS011;8790;53.590;10.002;2023-10-09T15:46:03;14.33;;;10.27;;
17345;SDS011;8790;53.590;10.002;2023-10-09T15:48:35;13.23;;;9.97;;
17345;SDS011;8790;53.590;10.002;2023-10-09T15:51:08;12.37;;;9.63;;
17345;SDS011;8790;53.590;10.002;2023-10-09T15:53:42;12.43;;;9.43;;
17345;SDS011;8790;53.590;10.002;2023-10-09T15:56:15;14.10;;;9.67;;